createdAt,value
2017-01-30T00:00:16.635Z,1008.92
2017-01-30T00:01:16.646Z,1008.95
2017-01-30T00:02:16.660Z,1008.87
2017-01-30T00:03:16.669Z,1008.88
2017-01-30T00:04:16.679Z,1008.87
2017-01-30T00:05:16.689Z,1008.86
2017-01-30T00:06:16.700Z,1008.92
2017-01-30T00:07:16.713Z,1008.85
2017-01-30T00:08:16.724Z,1008.77
2017-01-30T00:09:16.733Z,1008.76
2017-01-30T00:10:16.742Z,1008.74
2017-01-30T00:11:16.754Z,1008.77
2017-01-30T00:12:16.765Z,1008.81
2017-01-30T00:13:16.776Z,1008.83
2017-01-30T00:14:16.786Z,1008.78
2017-01-30T00:15:16.795Z,1008.8
2017-01-30T00:16:16.808Z,1008.8
2017-01-30T00:17:16.820Z,1008.83
2017-01-30T00:18:16.834Z,1008.83
2017-01-30T00:19:16.839Z,1008.81
2017-01-30T00:20:16.851Z,1008.78
2017-01-30T00:21:16.862Z,1008.73
2017-01-30T00:22:16.874Z,1008.72
2017-01-30T00:23:16.884Z,1008.72
2017-01-30T00:24:16.897Z,1008.69
2017-01-30T00:25:16.905Z,1008.71
2017-01-30T00:26:16.918Z,1008.68
2017-01-30T00:27:16.926Z,1008.69
2017-01-30T00:28:16.938Z,1008.71
2017-01-30T00:29:16.948Z,1008.69
2017-01-30T00:30:16.956Z,1008.72
2017-01-30T00:31:16.971Z,1008.71
2017-01-30T00:32:16.979Z,1008.7
2017-01-30T00:33:16.991Z,1008.72
2017-01-30T00:34:17.001Z,1008.71
2017-01-30T00:35:17.011Z,1008.68
2017-01-30T00:36:17.023Z,1008.64
2017-01-30T00:37:17.035Z,1008.63
2017-01-30T00:38:17.045Z,1008.6
2017-01-30T00:39:17.055Z,1008.59
2017-01-30T00:40:17.067Z,1008.57
2017-01-30T00:41:17.080Z,1008.58
2017-01-30T00:42:17.089Z,1008.57
2017-01-30T00:43:17.099Z,1008.6
2017-01-30T00:44:17.112Z,1008.59
2017-01-30T00:45:17.121Z,1008.55
2017-01-30T00:46:17.132Z,1008.54
2017-01-30T00:47:17.142Z,1008.57
2017-01-30T00:48:17.155Z,1008.56
2017-01-30T00:49:17.165Z,1008.58
2017-01-30T00:50:17.173Z,1008.56
2017-01-30T00:51:17.186Z,1008.59
2017-01-30T00:52:17.196Z,1008.56
2017-01-30T00:53:17.208Z,1008.49
2017-01-30T00:54:17.221Z,1008.5
2017-01-30T00:55:17.229Z,1008.48
2017-01-30T00:56:17.239Z,1008.47
2017-01-30T00:57:17.249Z,1008.46
2017-01-30T00:58:17.261Z,1008.38
2017-01-30T00:59:17.271Z,1008.44
2017-01-30T01:00:17.282Z,1008.42
2017-01-30T01:01:17.296Z,1008.42
2017-01-30T01:02:17.305Z,1008.37
2017-01-30T01:03:17.316Z,1008.38
2017-01-30T01:04:17.324Z,1008.38
2017-01-30T01:05:17.337Z,1008.38
2017-01-30T01:06:17.350Z,1008.38
2017-01-30T01:07:17.358Z,1008.34
2017-01-30T01:08:17.368Z,1008.38
2017-01-30T01:09:17.378Z,1008.32
2017-01-30T01:10:17.389Z,1008.36
2017-01-30T01:11:17.400Z,1008.33
2017-01-30T01:12:17.411Z,1008.3
2017-01-30T01:13:17.422Z,1008.31
2017-01-30T01:14:17.432Z,1008.27
2017-01-30T01:15:17.442Z,1008.26
2017-01-30T01:16:17.454Z,1008.23
2017-01-30T01:17:17.467Z,1008.19
2017-01-30T01:18:17.474Z,1008.23
2017-01-30T01:19:17.485Z,1008.17
2017-01-30T01:20:17.495Z,1008.16
2017-01-30T01:21:17.512Z,1008.14
2017-01-30T01:22:17.520Z,1008.14
2017-01-30T01:23:17.529Z,1008.1
2017-01-30T01:24:17.540Z,1008.06
2017-01-30T01:25:17.550Z,1008.04
2017-01-30T01:26:17.568Z,1007.96
2017-01-30T01:27:17.579Z,1007.96
2017-01-30T01:28:17.582Z,1007.9
2017-01-30T01:29:17.592Z,1007.9
2017-01-30T01:30:17.604Z,1007.92
2017-01-30T01:31:17.614Z,1007.87
2017-01-30T01:32:17.624Z,1007.88
2017-01-30T01:33:17.636Z,1007.85
2017-01-30T01:34:17.647Z,1007.87
2017-01-30T01:35:17.660Z,1007.86
2017-01-30T01:36:17.668Z,1007.84
2017-01-30T01:37:17.679Z,1007.9
2017-01-30T01:38:17.698Z,1007.86
2017-01-30T01:39:17.703Z,1007.89
2017-01-30T01:40:17.709Z,1007.92
2017-01-30T01:41:17.721Z,1007.88
2017-01-30T01:42:17.732Z,1007.85
2017-01-30T01:43:17.748Z,1007.86
2017-01-30T01:44:17.754Z,1007.82
2017-01-30T01:45:17.764Z,1007.82
2017-01-30T01:46:17.775Z,1007.87
2017-01-30T01:47:17.787Z,1007.85
2017-01-30T01:48:17.796Z,1007.84
2017-01-30T01:49:17.807Z,1007.77
2017-01-30T01:50:17.817Z,1007.79
2017-01-30T01:51:17.828Z,1007.76
2017-01-30T01:52:17.839Z,1007.8
2017-01-30T01:53:17.848Z,1007.77
2017-01-30T01:54:17.857Z,1007.7
2017-01-30T01:55:17.867Z,1007.69
2017-01-30T01:56:17.877Z,1007.66
2017-01-30T01:57:17.891Z,1007.62
2017-01-30T01:58:17.899Z,1007.58
2017-01-30T01:59:17.912Z,1007.55
2017-01-30T02:00:17.921Z,1007.55
2017-01-30T02:01:17.934Z,1007.56
2017-01-30T02:02:17.942Z,1007.52
2017-01-30T02:03:17.954Z,1007.53
2017-01-30T02:04:17.964Z,1007.5
2017-01-30T02:05:17.977Z,1007.49
2017-01-30T02:06:17.988Z,1007.49
2017-01-30T02:07:17.998Z,1007.51
2017-01-30T02:08:18.007Z,1007.49
2017-01-30T02:09:18.021Z,1007.47
2017-01-30T02:10:18.058Z,1007.52
2017-01-30T02:11:18.039Z,1007.48
2017-01-30T02:12:18.049Z,1007.51
2017-01-30T02:13:18.060Z,1007.54
2017-01-30T02:14:18.072Z,1007.5
2017-01-30T02:15:18.082Z,1007.51
2017-01-30T02:16:18.091Z,1007.44
2017-01-30T02:17:18.101Z,1007.45
2017-01-30T02:18:18.113Z,1007.41
2017-01-30T02:19:18.125Z,1007.42
2017-01-30T02:20:18.185Z,1007.36
2017-01-30T02:21:18.169Z,1007.4
2017-01-30T02:22:18.155Z,1007.39
2017-01-30T02:23:18.166Z,1007.39
2017-01-30T02:24:18.176Z,1007.36
2017-01-30T02:25:18.190Z,1007.39
2017-01-30T02:26:18.197Z,1007.4
2017-01-30T02:27:18.208Z,1007.36
2017-01-30T02:28:18.221Z,1007.34
2017-01-30T02:29:18.231Z,1007.32
2017-01-30T02:30:18.241Z,1007.33
2017-01-30T02:31:18.251Z,1007.3
2017-01-30T02:32:18.263Z,1007.28
2017-01-30T02:33:18.274Z,1007.3
2017-01-30T02:34:18.284Z,1007.33
2017-01-30T02:35:18.293Z,1007.31
2017-01-30T02:36:18.306Z,1007.26
2017-01-30T02:37:18.315Z,1007.27
2017-01-30T02:38:18.326Z,1007.29
2017-01-30T02:39:18.334Z,1007.34
2017-01-30T02:40:18.346Z,1007.29
2017-01-30T02:41:18.355Z,1007.29
2017-01-30T02:42:18.366Z,1007.26
2017-01-30T02:43:18.378Z,1007.26
2017-01-30T02:44:18.388Z,1007.24
2017-01-30T02:45:18.397Z,1007.27
2017-01-30T02:46:18.408Z,1007.22
2017-01-30T02:47:18.419Z,1007.23
2017-01-30T02:48:18.430Z,1007.2
2017-01-30T02:49:18.440Z,1007.2
2017-01-30T02:50:18.452Z,1007.2
2017-01-30T02:51:18.461Z,1007.19
2017-01-30T02:52:18.472Z,1007.21
2017-01-30T02:53:18.482Z,1007.17
2017-01-30T02:54:18.492Z,1007.13
2017-01-30T02:55:18.503Z,1007.12
2017-01-30T02:56:18.514Z,1007.13
2017-01-30T02:57:18.525Z,1007.13
2017-01-30T02:58:18.534Z,1007.08
2017-01-30T02:59:18.547Z,1007.07
2017-01-30T03:00:18.562Z,1007.07
2017-01-30T03:01:18.567Z,1007.05
2017-01-30T03:02:18.578Z,1007.07
2017-01-30T03:03:18.586Z,1007.06
2017-01-30T03:04:18.597Z,1007.08
2017-01-30T03:05:18.607Z,1007.07
2017-01-30T03:06:18.617Z,1007.04
2017-01-30T03:07:18.630Z,1007.01
2017-01-30T03:08:18.640Z,1007.03
2017-01-30T03:09:18.649Z,1007.04
2017-01-30T03:10:18.662Z,1006.95
2017-01-30T03:11:18.671Z,1006.97
2017-01-30T03:12:18.683Z,1006.99
2017-01-30T03:13:18.692Z,1006.96
2017-01-30T03:14:18.701Z,1006.91
2017-01-30T03:15:18.715Z,1006.86
2017-01-30T03:16:18.725Z,1006.89
2017-01-30T03:17:18.734Z,1006.87
2017-01-30T03:18:18.744Z,1006.87
2017-01-30T03:19:18.755Z,1006.84
2017-01-30T03:20:18.765Z,1006.87
2017-01-30T03:21:18.778Z,1006.85
2017-01-30T03:22:18.786Z,1006.86
2017-01-30T03:23:18.797Z,1006.85
2017-01-30T03:24:18.807Z,1006.81
2017-01-30T03:25:18.822Z,1006.83
2017-01-30T03:26:18.831Z,1006.82
2017-01-30T03:27:18.838Z,1006.84
2017-01-30T03:28:18.851Z,1006.82
2017-01-30T03:29:18.859Z,1006.87
2017-01-30T03:30:18.869Z,1006.82
2017-01-30T03:31:18.879Z,1006.81
2017-01-30T03:32:18.891Z,1006.81
2017-01-30T03:33:18.900Z,1006.77
2017-01-30T03:34:18.910Z,1006.79
2017-01-30T03:35:18.921Z,1006.77
2017-01-30T03:36:18.930Z,1006.77
2017-01-30T03:37:18.942Z,1006.78
2017-01-30T03:38:18.952Z,1006.76
2017-01-30T03:39:18.961Z,1006.78
2017-01-30T03:40:18.973Z,1006.79
2017-01-30T03:41:18.982Z,1006.74
2017-01-30T03:42:18.994Z,1006.71
2017-01-30T03:43:19.003Z,1006.7
2017-01-30T03:44:19.013Z,1006.67
2017-01-30T03:45:19.182Z,1006.7
2017-01-30T03:46:19.035Z,1006.7
2017-01-30T03:47:19.046Z,1006.65
2017-01-30T03:48:19.055Z,1006.67
2017-01-30T03:49:19.067Z,1006.67
2017-01-30T03:50:19.078Z,1006.6
2017-01-30T03:51:19.085Z,1006.62
2017-01-30T03:52:19.098Z,1006.6
2017-01-30T03:53:19.107Z,1006.65
2017-01-30T03:54:19.117Z,1006.6
2017-01-30T03:55:19.128Z,1006.6
2017-01-30T03:56:19.140Z,1006.58
2017-01-30T03:57:19.151Z,1006.61
2017-01-30T03:58:19.168Z,1006.6
2017-01-30T03:59:19.170Z,1006.57
2017-01-30T04:00:19.180Z,1006.67
2017-01-30T04:01:19.190Z,1006.6
2017-01-30T04:02:19.199Z,1006.59
2017-01-30T04:03:19.212Z,1006.53
2017-01-30T04:04:19.221Z,1006.51
2017-01-30T04:05:19.231Z,1006.51
2017-01-30T04:06:19.241Z,1006.51
2017-01-30T04:07:19.253Z,1006.48
2017-01-30T04:08:19.263Z,1006.46
2017-01-30T04:09:19.273Z,1006.47
2017-01-30T04:10:19.283Z,1006.42
2017-01-30T04:11:19.293Z,1006.43
2017-01-30T04:12:19.304Z,1006.41
2017-01-30T04:13:19.313Z,1006.41
2017-01-30T04:14:19.323Z,1006.4
2017-01-30T04:15:19.334Z,1006.38
2017-01-30T04:16:19.351Z,1006.39
2017-01-30T04:17:19.355Z,1006.38
2017-01-30T04:18:19.371Z,1006.36
2017-01-30T04:19:19.378Z,1006.36
2017-01-30T04:20:19.385Z,1006.29
2017-01-30T04:21:19.396Z,1006.34
2017-01-30T04:22:19.406Z,1006.34
2017-01-30T04:23:19.419Z,1006.32
2017-01-30T04:24:19.427Z,1006.32
2017-01-30T04:25:19.438Z,1006.37
2017-01-30T04:26:19.452Z,1006.35
2017-01-30T04:27:19.457Z,1006.32
2017-01-30T04:28:19.471Z,1006.35
2017-01-30T04:29:19.481Z,1006.32
2017-01-30T04:30:19.490Z,1006.31
2017-01-30T04:31:19.499Z,1006.28
2017-01-30T04:32:19.509Z,1006.23
2017-01-30T04:33:19.522Z,1006.23
2017-01-30T04:34:19.532Z,1006.22
2017-01-30T04:35:19.542Z,1006.21
2017-01-30T04:36:19.550Z,1006.16
2017-01-30T04:37:19.593Z,1006.21
2017-01-30T04:38:19.573Z,1006.2
2017-01-30T04:39:19.580Z,1006.13
2017-01-30T04:40:19.591Z,1006.14
2017-01-30T04:41:19.605Z,1006.19
2017-01-30T04:42:19.617Z,1006.15
2017-01-30T04:43:19.624Z,1006.12
2017-01-30T04:44:19.632Z,1006.09
2017-01-30T04:45:19.645Z,1006.11
2017-01-30T04:46:19.653Z,1006.04
2017-01-30T04:47:19.664Z,1006.08
2017-01-30T04:48:19.674Z,1006.03
2017-01-30T04:49:19.690Z,1006.03
2017-01-30T04:50:19.698Z,1005.99
2017-01-30T04:51:19.706Z,1006.01
2017-01-30T04:52:19.715Z,1005.97
2017-01-30T04:53:19.724Z,1005.92
2017-01-30T04:54:19.734Z,1005.91
2017-01-30T04:55:19.746Z,1005.92
2017-01-30T04:56:19.756Z,1005.89
2017-01-30T04:57:19.766Z,1005.87
2017-01-30T04:58:19.779Z,1005.88
2017-01-30T04:59:19.793Z,1005.9
2017-01-30T05:00:19.803Z,1005.84
2017-01-30T05:01:19.813Z,1005.86
2017-01-30T05:02:19.819Z,1005.83
2017-01-30T05:03:19.827Z,1005.82
2017-01-30T05:04:19.839Z,1005.79
2017-01-30T05:05:19.848Z,1005.79
2017-01-30T05:06:19.858Z,1005.77
2017-01-30T05:07:19.871Z,1005.72
2017-01-30T05:08:19.880Z,1005.74
2017-01-30T05:09:19.895Z,1005.69
2017-01-30T05:10:19.906Z,1005.73
2017-01-30T05:11:19.914Z,1005.71
2017-01-30T05:12:19.924Z,1005.69
2017-01-30T05:13:19.933Z,1005.69
2017-01-30T05:14:19.942Z,1005.66
2017-01-30T05:15:19.951Z,1005.64
2017-01-30T05:16:19.962Z,1005.65
2017-01-30T05:17:19.975Z,1005.6
2017-01-30T05:18:19.985Z,1005.61
2017-01-30T05:19:19.992Z,1005.56
2017-01-30T05:20:20.003Z,1005.56
2017-01-30T05:21:20.013Z,1005.57
2017-01-30T05:22:20.023Z,1005.55
2017-01-30T05:23:20.034Z,1005.56
2017-01-30T05:24:20.044Z,1005.52
2017-01-30T05:25:20.055Z,1005.5
2017-01-30T05:26:20.065Z,1005.49
2017-01-30T05:27:20.076Z,1005.47
2017-01-30T05:28:20.085Z,1005.49
2017-01-30T05:29:20.095Z,1005.48
2017-01-30T05:30:20.105Z,1005.46
2017-01-30T05:31:20.118Z,1005.45
2017-01-30T05:32:20.131Z,1005.46
2017-01-30T05:33:20.137Z,1005.41
2017-01-30T05:34:20.148Z,1005.44
2017-01-30T05:35:20.157Z,1005.46
2017-01-30T05:36:20.167Z,1005.46
2017-01-30T05:37:20.178Z,1005.42
2017-01-30T05:38:20.188Z,1005.47
2017-01-30T05:39:20.199Z,1005.42
2017-01-30T05:40:20.208Z,1005.42
2017-01-30T05:41:20.219Z,1005.43
2017-01-30T05:42:20.230Z,1005.41
2017-01-30T05:43:20.245Z,1005.4
2017-01-30T05:44:20.252Z,1005.36
2017-01-30T05:45:20.261Z,1005.35
2017-01-30T05:46:20.271Z,1005.33
2017-01-30T05:47:20.282Z,1005.31
2017-01-30T05:48:20.290Z,1005.32
2017-01-30T05:49:20.302Z,1005.29
2017-01-30T05:50:20.316Z,1005.28
2017-01-30T05:51:20.321Z,1005.29
2017-01-30T05:52:20.330Z,1005.3
2017-01-30T05:53:20.345Z,1005.26
2017-01-30T05:54:20.360Z,1005.26
2017-01-30T05:55:20.361Z,1005.22
2017-01-30T05:56:20.375Z,1005.23
2017-01-30T05:57:20.383Z,1005.21
2017-01-30T05:58:20.394Z,1005.15
2017-01-30T05:59:20.403Z,1005.14
2017-01-30T06:00:20.421Z,1005.11
2017-01-30T06:01:20.423Z,1005.1
2017-01-30T06:02:20.434Z,1005.08
2017-01-30T06:03:20.446Z,1005.05
2017-01-30T06:04:20.454Z,1005.04
2017-01-30T06:05:20.467Z,1005.01
2017-01-30T06:06:20.475Z,1004.99
2017-01-30T06:07:20.489Z,1004.96
2017-01-30T06:08:20.496Z,1004.92
2017-01-30T06:09:20.514Z,1004.91
2017-01-30T06:10:20.517Z,1004.95
2017-01-30T06:11:20.525Z,1004.89
2017-01-30T06:12:20.536Z,1004.89
2017-01-30T06:13:20.572Z,1004.94
2017-01-30T06:14:20.556Z,1004.87
2017-01-30T06:15:20.570Z,1004.9
2017-01-30T06:16:20.580Z,1004.9
2017-01-30T06:17:20.587Z,1004.85
2017-01-30T06:18:20.598Z,1004.81
2017-01-30T06:19:20.608Z,1004.84
2017-01-30T06:20:20.618Z,1004.89
2017-01-30T06:21:20.627Z,1004.84
2017-01-30T06:22:20.638Z,1004.88
2017-01-30T06:23:20.649Z,1004.86
2017-01-30T06:24:20.662Z,1004.85
2017-01-30T06:25:20.667Z,1004.86
2017-01-30T06:26:20.679Z,1004.83
2017-01-30T06:27:20.693Z,1004.86
2017-01-30T06:28:20.700Z,1004.84
2017-01-30T06:29:20.713Z,1004.86
2017-01-30T06:30:20.720Z,1004.83
2017-01-30T06:31:20.731Z,1004.85
2017-01-30T06:32:20.744Z,1004.86
2017-01-30T06:33:20.751Z,1004.87
2017-01-30T06:34:20.761Z,1004.83
2017-01-30T06:35:20.769Z,1004.88
2017-01-30T06:36:20.781Z,1004.85
2017-01-30T06:37:20.791Z,1004.81
2017-01-30T06:38:20.803Z,1004.83
2017-01-30T06:39:20.813Z,1004.82
2017-01-30T06:40:20.821Z,1004.79
2017-01-30T06:41:20.836Z,1004.78
2017-01-30T06:42:20.869Z,1004.72
2017-01-30T06:43:20.852Z,1004.71
2017-01-30T06:44:20.864Z,1004.7
2017-01-30T06:45:20.873Z,1004.66
2017-01-30T06:46:20.883Z,1004.68
2017-01-30T06:47:20.895Z,1004.68
2017-01-30T06:48:20.913Z,1004.65
2017-01-30T06:49:20.914Z,1004.68
2017-01-30T06:50:20.926Z,1004.64
2017-01-30T06:51:20.935Z,1004.59
2017-01-30T06:52:20.945Z,1004.61
2017-01-30T06:53:20.985Z,1004.61
2017-01-30T06:54:20.963Z,1004.6
2017-01-30T06:55:20.974Z,1004.61
2017-01-30T06:56:20.983Z,1004.55
2017-01-30T06:57:20.994Z,1004.57
2017-01-30T06:58:21.004Z,1004.6
2017-01-30T06:59:21.016Z,1004.61
2017-01-30T07:00:21.025Z,1004.54
2017-01-30T07:01:21.038Z,1004.54
2017-01-30T07:02:21.046Z,1004.55
2017-01-30T07:03:21.056Z,1004.56
2017-01-30T07:04:21.065Z,1004.47
2017-01-30T07:05:21.080Z,1004.47
2017-01-30T07:06:21.087Z,1004.45
2017-01-30T07:07:21.097Z,1004.47
2017-01-30T07:08:21.108Z,1004.46
2017-01-30T07:09:21.116Z,1004.44
2017-01-30T07:10:21.129Z,1004.39
2017-01-30T07:11:21.144Z,1004.42
2017-01-30T07:12:21.149Z,1004.33
2017-01-30T07:13:21.159Z,1004.28
2017-01-30T07:14:21.168Z,1004.28
2017-01-30T07:15:21.179Z,1004.3
2017-01-30T07:16:21.190Z,1004.23
2017-01-30T07:17:21.199Z,1004.24
2017-01-30T07:18:21.210Z,1004.27
2017-01-30T07:19:21.218Z,1004.24
2017-01-30T07:20:21.229Z,1004.22
2017-01-30T07:21:21.240Z,1004.21
2017-01-30T07:22:21.250Z,1004.24
2017-01-30T07:23:21.272Z,1004.18
2017-01-30T07:24:21.281Z,1004.21
2017-01-30T07:25:21.283Z,1004.17
2017-01-30T07:26:21.288Z,1004.19
2017-01-30T07:27:21.302Z,1004.21
2017-01-30T07:28:21.310Z,1004.2
2017-01-30T07:29:21.322Z,1004.16
2017-01-30T07:30:21.330Z,1004.2
2017-01-30T07:31:21.342Z,1004.18
2017-01-30T07:32:21.352Z,1004.08
2017-01-30T07:33:21.363Z,1004.12
2017-01-30T07:34:21.372Z,1004.11
2017-01-30T07:35:21.383Z,1004.11
2017-01-30T07:36:21.394Z,1004.13
2017-01-30T07:37:21.402Z,1004.08
2017-01-30T07:38:21.413Z,1004.12
2017-01-30T07:39:21.423Z,1004.1
2017-01-30T07:40:21.434Z,1004.05
2017-01-30T07:41:21.445Z,1004.04
2017-01-30T07:42:21.455Z,1004.07
2017-01-30T07:43:21.464Z,1004.07
2017-01-30T07:44:21.476Z,1004.09
2017-01-30T07:45:21.487Z,1004.05
2017-01-30T07:46:21.506Z,1004.06
2017-01-30T07:47:21.512Z,1003.97
2017-01-30T07:48:21.520Z,1004
2017-01-30T07:49:21.525Z,1004.01
2017-01-30T07:50:21.538Z,1003.97
2017-01-30T07:51:21.546Z,1003.94
2017-01-30T07:52:21.557Z,1003.95
2017-01-30T07:53:21.566Z,1003.96
2017-01-30T07:54:21.587Z,1004.01
2017-01-30T07:55:21.589Z,1003.99
2017-01-30T07:56:21.597Z,1003.96
2017-01-30T07:57:21.608Z,1003.94
2017-01-30T07:58:21.618Z,1003.98
2017-01-30T07:59:21.628Z,1003.95
2017-01-30T08:00:21.639Z,1003.94
2017-01-30T08:01:21.651Z,1003.91
2017-01-30T08:02:21.661Z,1003.96
2017-01-30T08:03:21.672Z,1003.92
2017-01-30T08:04:21.682Z,1003.86
2017-01-30T08:05:21.690Z,1003.92
2017-01-30T08:06:21.700Z,1003.92
2017-01-30T08:07:21.711Z,1003.92
2017-01-30T08:08:21.720Z,1003.91
2017-01-30T08:09:21.739Z,1003.91
2017-01-30T08:10:21.742Z,1003.92
2017-01-30T08:11:21.752Z,1003.89
2017-01-30T08:12:21.766Z,1003.92
2017-01-30T08:13:21.773Z,1003.91
2017-01-30T08:14:21.784Z,1003.87
2017-01-30T08:15:21.793Z,1003.9
2017-01-30T08:16:21.833Z,1003.89
2017-01-30T08:17:21.816Z,1003.84
2017-01-30T08:18:21.828Z,1003.84
2017-01-30T08:19:21.835Z,1003.86
2017-01-30T08:20:21.846Z,1003.77
2017-01-30T08:21:21.856Z,1003.78
2017-01-30T08:22:21.866Z,1003.7
2017-01-30T08:23:21.878Z,1003.69
2017-01-30T08:24:21.892Z,1003.72
2017-01-30T08:25:21.895Z,1003.7
2017-01-30T08:26:21.908Z,1003.73
2017-01-30T08:27:21.918Z,1003.74
2017-01-30T08:28:21.929Z,1003.74
2017-01-30T08:29:21.939Z,1003.64
2017-01-30T08:30:21.948Z,1003.69
2017-01-30T08:31:21.960Z,1003.71
2017-01-30T08:32:21.972Z,1003.68
2017-01-30T08:33:21.980Z,1003.67
2017-01-30T08:34:21.990Z,1003.64
2017-01-30T08:35:22.001Z,1003.64
2017-01-30T08:36:22.010Z,1003.69
2017-01-30T08:37:22.020Z,1003.71
2017-01-30T08:38:22.033Z,1003.72
2017-01-30T08:39:22.042Z,1003.73
2017-01-30T08:40:22.052Z,1003.69
2017-01-30T08:41:22.064Z,1003.7
2017-01-30T08:42:22.074Z,1003.74
2017-01-30T08:43:22.083Z,1003.72
2017-01-30T08:44:22.096Z,1003.7
2017-01-30T08:45:22.105Z,1003.69
2017-01-30T08:46:22.117Z,1003.66
2017-01-30T08:47:22.125Z,1003.62
2017-01-30T08:48:22.136Z,1003.67
2017-01-30T08:49:22.146Z,1003.6
2017-01-30T08:50:22.155Z,1003.62
2017-01-30T08:51:22.167Z,1003.6
2017-01-30T08:52:22.178Z,1003.63
2017-01-30T08:53:22.188Z,1003.6
2017-01-30T08:54:22.197Z,1003.62
2017-01-30T08:55:22.209Z,1003.6
2017-01-30T08:56:22.219Z,1003.61
2017-01-30T08:57:22.231Z,1003.6
2017-01-30T08:58:22.240Z,1003.57
2017-01-30T08:59:22.251Z,1003.54
2017-01-30T09:00:22.260Z,1003.52
2017-01-30T09:01:22.270Z,1003.54
2017-01-30T09:02:22.281Z,1003.52
2017-01-30T09:03:22.298Z,1003.52
2017-01-30T09:04:22.303Z,1003.44
2017-01-30T09:05:22.313Z,1003.47
2017-01-30T09:06:22.323Z,1003.43
2017-01-30T09:07:22.337Z,1003.42
2017-01-30T09:08:22.345Z,1003.44
2017-01-30T09:09:22.355Z,1003.41
2017-01-30T09:10:22.365Z,1003.4
2017-01-30T09:11:22.377Z,1003.39
2017-01-30T09:12:22.387Z,1003.36
2017-01-30T09:13:22.398Z,1003.37
2017-01-30T09:14:22.408Z,1003.37
2017-01-30T09:15:22.418Z,1003.34
2017-01-30T09:16:22.427Z,1003.36
2017-01-30T09:17:22.440Z,1003.4
2017-01-30T09:18:22.449Z,1003.35
2017-01-30T09:19:22.462Z,1003.36
2017-01-30T09:20:22.473Z,1003.4
2017-01-30T09:21:22.482Z,1003.41
2017-01-30T09:22:22.493Z,1003.37
2017-01-30T09:23:22.503Z,1003.43
2017-01-30T09:24:22.514Z,1003.34
2017-01-30T09:25:22.524Z,1003.34
2017-01-30T09:26:22.535Z,1003.34
2017-01-30T09:27:22.546Z,1003.35
2017-01-30T09:28:22.556Z,1003.37
2017-01-30T09:29:22.568Z,1003.28
2017-01-30T09:30:22.583Z,1003.22
2017-01-30T09:31:22.593Z,1003.29
2017-01-30T09:32:22.600Z,1003.28
2017-01-30T09:33:22.611Z,1003.22
2017-01-30T09:34:22.623Z,1003.24
2017-01-30T09:35:22.633Z,1003.21
2017-01-30T09:36:22.643Z,1003.25
2017-01-30T09:37:22.657Z,1003.19
2017-01-30T09:38:22.664Z,1003.28
2017-01-30T09:39:22.676Z,1003.24
2017-01-30T09:40:22.690Z,1003.27
2017-01-30T09:41:22.697Z,1003.3
2017-01-30T09:42:22.711Z,1003.26
2017-01-30T09:43:22.719Z,1003.29
2017-01-30T09:44:22.730Z,1003.27
2017-01-30T09:45:22.739Z,1003.26
2017-01-30T09:46:22.755Z,1003.26
2017-01-30T09:47:22.762Z,1003.22
2017-01-30T09:48:22.773Z,1003.23
2017-01-30T09:49:22.783Z,1003.22
2017-01-30T09:50:22.795Z,1003.24
2017-01-30T09:51:22.804Z,1003.23
2017-01-30T09:52:22.817Z,1003.2
2017-01-30T09:53:22.826Z,1003.19
2017-01-30T09:54:22.837Z,1003.12
2017-01-30T09:55:22.848Z,1003.16
2017-01-30T09:56:22.861Z,1003.13
2017-01-30T09:57:22.877Z,1003.11
2017-01-30T09:58:22.882Z,1003.15
2017-01-30T09:59:22.895Z,1003.09
2017-01-30T10:00:22.905Z,1003.1
2017-01-30T10:01:22.914Z,1003.09
2017-01-30T10:02:22.925Z,1003.13
2017-01-30T10:03:22.936Z,1003.12
2017-01-30T10:04:22.946Z,1003.18
2017-01-30T10:05:22.959Z,1003.18
2017-01-30T10:06:22.969Z,1003.09
2017-01-30T10:07:22.980Z,1003.14
2017-01-30T10:08:22.991Z,1003.08
2017-01-30T10:09:23.003Z,1003.08
2017-01-30T10:10:23.035Z,1003
2017-01-30T10:11:23.024Z,1003
2017-01-30T10:12:23.038Z,1002.97
2017-01-30T10:13:23.049Z,1002.99
2017-01-30T10:14:23.058Z,1002.96
2017-01-30T10:15:23.070Z,1002.98
2017-01-30T10:16:23.130Z,1002.93
2017-01-30T10:17:23.092Z,1002.91
2017-01-30T10:18:23.103Z,1002.87
2017-01-30T10:19:23.115Z,1002.9
2017-01-30T10:20:23.126Z,1002.93
2017-01-30T10:21:23.137Z,1002.87
2017-01-30T10:22:23.147Z,1002.84
2017-01-30T10:23:23.159Z,1002.87
2017-01-30T10:24:23.172Z,1002.84
2017-01-30T10:25:23.182Z,1002.79
2017-01-30T10:26:23.192Z,1002.84
2017-01-30T10:27:23.204Z,1002.76
2017-01-30T10:28:23.215Z,1002.75
2017-01-30T10:29:23.231Z,1002.7
2017-01-30T10:30:23.237Z,1002.72
2017-01-30T10:31:23.249Z,1002.67
2017-01-30T10:32:23.260Z,1002.65
2017-01-30T10:33:23.271Z,1002.62
2017-01-30T10:34:23.281Z,1002.65
2017-01-30T10:35:23.294Z,1002.62
2017-01-30T10:36:23.303Z,1002.61
2017-01-30T10:37:23.315Z,1002.56
2017-01-30T10:38:23.326Z,1002.53
2017-01-30T10:39:23.338Z,1002.53
2017-01-30T10:40:23.350Z,1002.48
2017-01-30T10:41:23.359Z,1002.44
2017-01-30T10:42:23.373Z,1002.4
2017-01-30T10:43:23.384Z,1002.43
2017-01-30T10:44:23.394Z,1002.38
2017-01-30T10:45:23.405Z,1002.39
2017-01-30T10:46:23.419Z,1002.43
2017-01-30T10:47:23.428Z,1002.42
2017-01-30T10:48:23.442Z,1002.36
2017-01-30T10:49:23.451Z,1002.35
2017-01-30T10:50:23.462Z,1002.39
2017-01-30T10:51:23.478Z,1002.37
2017-01-30T10:52:23.486Z,1002.34
2017-01-30T10:53:23.500Z,1002.33
2017-01-30T10:54:23.508Z,1002.36
2017-01-30T10:55:23.519Z,1002.36
2017-01-30T10:56:23.532Z,1002.35
2017-01-30T10:57:23.542Z,1002.35
2017-01-30T10:58:23.555Z,1002.33
2017-01-30T10:59:23.565Z,1002.34
2017-01-30T11:00:23.576Z,1002.34
2017-01-30T11:01:23.591Z,1002.3
2017-01-30T11:02:23.604Z,1002.3
2017-01-30T11:03:23.611Z,1002.28
2017-01-30T11:04:23.623Z,1002.3
2017-01-30T11:05:23.635Z,1002.27
2017-01-30T11:06:23.645Z,1002.26
2017-01-30T11:07:23.658Z,1002.23
2017-01-30T11:08:23.670Z,1002.19
2017-01-30T11:09:23.680Z,1002.17
2017-01-30T11:10:23.691Z,1002.14
2017-01-30T11:11:23.704Z,1002.17
2017-01-30T11:12:23.715Z,1002.08
2017-01-30T11:13:23.727Z,1002.04
2017-01-30T11:14:23.737Z,1002.07
2017-01-30T11:15:23.748Z,1002.06
2017-01-30T11:16:23.765Z,1002.09
2017-01-30T11:17:23.772Z,1002.07
2017-01-30T11:18:23.793Z,1002.07
2017-01-30T11:19:23.797Z,1002.04
2017-01-30T11:20:23.806Z,1002.06
2017-01-30T11:21:23.818Z,1002.01
2017-01-30T11:22:23.829Z,1002.02
2017-01-30T11:23:23.840Z,1002.04
2017-01-30T11:24:23.853Z,1002.02
2017-01-30T11:25:23.886Z,1002
2017-01-30T11:26:23.875Z,1001.98
2017-01-30T11:27:23.887Z,1001.94
2017-01-30T11:28:23.899Z,1001.97
2017-01-30T11:29:23.913Z,1001.98
2017-01-30T11:30:23.921Z,1002.01
2017-01-30T11:31:23.934Z,1002
2017-01-30T11:32:23.942Z,1001.96
2017-01-30T11:33:23.955Z,1001.93
2017-01-30T11:34:23.967Z,1001.9
2017-01-30T11:35:23.978Z,1001.93
2017-01-30T11:36:23.990Z,1001.88
2017-01-30T11:37:24.001Z,1001.85
2017-01-30T11:38:24.015Z,1001.85
2017-01-30T11:39:24.025Z,1001.79
2017-01-30T11:40:24.037Z,1001.79
2017-01-30T11:41:24.048Z,1001.8
2017-01-30T11:42:24.058Z,1001.73
2017-01-30T11:43:24.071Z,1001.73
2017-01-30T11:44:24.082Z,1001.71
2017-01-30T11:45:24.094Z,1001.65
2017-01-30T11:46:24.106Z,1001.69
2017-01-30T11:47:24.119Z,1001.68
2017-01-30T11:48:24.153Z,1001.62
2017-01-30T11:49:24.141Z,1001.66
2017-01-30T11:50:24.152Z,1001.59
2017-01-30T11:51:24.164Z,1001.61
2017-01-30T11:52:24.181Z,1001.66
2017-01-30T11:53:24.188Z,1001.59
2017-01-30T11:54:24.199Z,1001.61
2017-01-30T11:55:24.211Z,1001.6
2017-01-30T11:56:24.223Z,1001.53
2017-01-30T11:57:24.234Z,1001.52
2017-01-30T11:58:24.247Z,1001.5
2017-01-30T11:59:24.256Z,1001.54
2017-01-30T12:00:24.267Z,1001.54
2017-01-30T12:01:24.279Z,1001.48
2017-01-30T12:02:24.293Z,1001.48
2017-01-30T12:03:24.303Z,1001.44
2017-01-30T12:04:24.314Z,1001.4
2017-01-30T12:05:24.326Z,1001.4
2017-01-30T12:06:24.337Z,1001.34
2017-01-30T12:07:24.350Z,1001.31
2017-01-30T12:08:24.361Z,1001.31